createdAt,value
2022-08-07T00:00:31.297Z,71.10
2022-08-07T00:04:33.038Z,71.39
2022-08-07T00:08:37.024Z,71.92
2022-08-07T00:13:00.346Z,71.97
2022-08-07T00:17:03.542Z,72.13
2022-08-07T00:21:55.410Z,72.44
2022-08-07T00:25:41.173Z,72.36
2022-08-07T00:29:42.984Z,72.42
2022-08-07T00:33:47.625Z,72.84
2022-08-07T00:37:49.575Z,72.80
2022-08-07T00:42:02.199Z,73.16
2022-08-07T00:46:07.905Z,73.29
2022-08-07T00:50:21.093Z,73.57
2022-08-07T00:54:32.535Z,73.85
2022-08-07T00:58:34.564Z,74.05
2022-08-07T01:02:36.287Z,74.16
2022-08-07T01:06:41.432Z,74.46
2022-08-07T01:10:48.252Z,74.58
2022-08-07T01:15:01.508Z,74.77
2022-08-07T01:19:18.130Z,75.00
2022-08-07T01:23:25.525Z,75.50
2022-08-07T01:27:41.187Z,75.66
2022-08-07T01:31:54.796Z,75.81
2022-08-07T01:36:06.440Z,75.91
2022-08-07T01:40:15.519Z,76.16
2022-08-07T01:44:27.394Z,76.53
2022-08-07T01:48:30.385Z,76.60
2022-08-07T01:52:35.130Z,76.95
2022-08-07T01:57:02.264Z,77.60
2022-08-07T02:01:25.363Z,77.47
2022-08-07T02:05:47.683Z,77.62
2022-08-07T02:10:00.675Z,78.04
2022-08-07T02:14:04.587Z,78.24
2022-08-07T02:18:12.624Z,78.27
2022-08-07T02:22:18.446Z,78.38
2022-08-07T02:26:32.716Z,78.75
2022-08-07T02:30:38.726Z,78.90
2022-08-07T02:34:48.818Z,79.00
2022-08-07T02:38:57.686Z,79.20
2022-08-07T02:43:07.757Z,79.41
2022-08-07T02:47:19.599Z,80.34
2022-08-07T02:51:51.827Z,79.34
2022-08-07T02:56:03.623Z,79.66
2022-08-07T03:00:10.354Z,79.86
2022-08-07T03:04:14.485Z,79.97
2022-08-07T03:08:18.771Z,80.22
2022-08-07T03:12:30.962Z,80.30
2022-08-07T03:16:38.883Z,80.23
2022-08-07T03:20:44.776Z,80.43
2022-08-07T03:24:46.975Z,80.53
2022-08-07T03:28:49.624Z,80.73
2022-08-07T03:32:58.675Z,80.56
2022-08-07T03:37:12.108Z,80.52
2022-08-07T03:41:18.599Z,80.52
2022-08-07T03:45:43.665Z,80.93
2022-08-07T03:49:53.339Z,81.17
2022-08-07T03:54:32.828Z,81.63
2022-08-07T03:59:07.381Z,81.71
2022-08-07T04:02:47.513Z,81.67
2022-08-07T04:07:16.565Z,81.91
2022-08-07T04:12:23.403Z,82.13
2022-08-07T04:15:45.390Z,82.42
2022-08-07T04:19:52.593Z,82.41
2022-08-07T04:24:07.491Z,82.53
2022-08-07T04:28:13.362Z,82.69
2022-08-07T04:32:16.476Z,82.74
2022-08-07T04:36:22.717Z,82.71
2022-08-07T04:40:31.371Z,82.88
2022-08-07T04:44:36.306Z,82.85
2022-08-07T04:49:25.611Z,82.93
2022-08-07T04:54:01.090Z,82.38
2022-08-07T04:58:34.821Z,82.79
2022-08-07T05:04:01.156Z,82.40
2022-08-07T05:08:18.061Z,82.09
2022-08-07T05:12:46.200Z,82.07
2022-08-07T05:17:05.970Z,81.97
2022-08-07T05:21:18.364Z,82.03
2022-08-07T05:26:10.797Z,81.92
2022-08-07T05:30:05.327Z,81.63
2022-08-07T05:34:11.915Z,81.47
2022-08-07T05:38:59.790Z,81.04
2022-08-07T05:42:39.863Z,80.98
2022-08-07T05:46:51.340Z,80.56
2022-08-07T05:51:01.190Z,80.26
2022-08-07T05:55:10.748Z,79.83
2022-08-07T05:59:19.220Z,79.74
2022-08-07T06:03:53.862Z,79.15
2022-08-07T06:08:14.918Z,78.36
2022-08-07T06:12:15.310Z,78.01
2022-08-07T06:16:18.822Z,77.04
2022-08-07T06:20:31.901Z,76.34
2022-08-07T06:24:57.981Z,75.20
2022-08-07T06:29:04.160Z,74.78
2022-08-07T06:33:09.911Z,74.02
2022-08-07T06:37:20.665Z,73.52
2022-08-07T06:42:00.504Z,72.81
2022-08-07T06:46:00.142Z,72.22
2022-08-07T06:50:04.022Z,71.49
2022-08-07T06:55:34.052Z,70.85
2022-08-07T06:58:37.405Z,70.73
2022-08-07T07:02:53.857Z,70.32
2022-08-07T07:07:01.165Z,69.77
2022-08-07T07:11:14.544Z,69.18
2022-08-07T07:15:35.742Z,68.57
2022-08-07T07:19:57.498Z,68.07
2022-08-07T07:24:08.443Z,67.93
2022-08-07T07:28:42.726Z,67.24
2022-08-07T07:32:42.671Z,66.75
2022-08-07T07:36:48.098Z,66.09
2022-08-07T07:41:02.238Z,65.66
2022-08-07T07:45:06.699Z,64.49
2022-08-07T07:50:31.632Z,63.99
2022-08-07T07:53:34.845Z,63.43
2022-08-07T07:57:50.230Z,63.10
2022-08-07T08:02:03.683Z,63.01
2022-08-07T08:06:08.015Z,62.31
2022-08-07T08:10:37.584Z,62.05
2022-08-07T08:14:38.550Z,61.83
2022-08-07T08:18:41.854Z,61.30
2022-08-07T08:23:08.384Z,60.96
2022-08-07T08:27:14.412Z,60.61
2022-08-07T08:31:58.442Z,60.11
2022-08-07T08:35:51.518Z,59.82
2022-08-07T08:39:58.316Z,59.14
2022-08-07T08:44:29.145Z,58.39
2022-08-07T08:48:46.710Z,58.24
2022-08-07T08:53:34.791Z,57.20
2022-08-07T08:58:02.970Z,56.73
2022-08-07T09:02:35.073Z,56.81
2022-08-07T09:07:11.271Z,56.57
2022-08-07T09:11:24.445Z,56.65
2022-08-07T09:16:25.456Z,56.23
2022-08-07T09:20:42.842Z,56.54
2022-08-07T09:25:17.180Z,56.55
2022-08-07T09:30:05.065Z,56.35
2022-08-07T09:34:21.505Z,56.18
2022-08-07T09:38:36.677Z,55.98
2022-08-07T09:43:08.315Z,55.48
2022-08-07T09:47:55.997Z,54.79
2022-08-07T09:52:34.093Z,54.53
2022-08-07T09:56:55.688Z,54.56
2022-08-07T10:01:51.152Z,54.68
2022-08-07T10:06:12.321Z,54.44
2022-08-07T10:10:39.702Z,54.17
2022-08-07T10:15:21.081Z,54.16
2022-08-07T10:19:44.018Z,54.01
2022-08-07T10:24:18.418Z,53.87
2022-08-07T10:28:49.607Z,53.68
2022-08-07T10:33:14.931Z,53.65
2022-08-07T10:38:00.948Z,53.74
2022-08-07T10:42:20.783Z,53.93
2022-08-07T10:46:32.559Z,54.26
2022-08-07T10:50:49.899Z,54.51
2022-08-07T10:55:01.579Z,54.34
2022-08-07T10:59:24.562Z,54.60
2022-08-07T11:03:52.566Z,54.67
2022-08-07T11:08:18.475Z,55.09
2022-08-07T11:12:37.898Z,54.91
2022-08-07T11:17:02.115Z,55.18
2022-08-07T11:21:14.958Z,55.25
2022-08-07T11:25:30.724Z,55.25
2022-08-07T11:30:18.040Z,54.65
2022-08-07T11:34:43.900Z,53.93
2022-08-07T11:39:01.942Z,53.42
2022-08-07T11:43:17.181Z,52.90
2022-08-07T11:48:18.150Z,51.57
2022-08-07T11:52:37.708Z,51.46
2022-08-07T11:57:03.780Z,50.74
2022-08-07T12:01:25.361Z,50.57
2022-08-07T12:05:58.389Z,49.77
2022-08-07T12:10:08.551Z,49.97
2022-08-07T12:14:27.574Z,49.72
2022-08-07T12:18:38.289Z,49.43
2022-08-07T12:23:37.176Z,49.17
2022-08-07T12:28:08.506Z,49.01
2022-08-07T12:32:42.008Z,48.29
2022-08-07T12:36:49.524Z,48.94
2022-08-07T12:40:55.328Z,48.51
2022-08-07T12:45:04.485Z,48.45
2022-08-07T12:49:44.802Z,48.24
2022-08-07T12:54:37.238Z,48.71
2022-08-07T12:58:43.871Z,48.83
2022-08-07T13:03:07.226Z,48.79
2022-08-07T13:08:11.900Z,48.57
2022-08-07T13:12:15.137Z,48.68
2022-08-07T13:16:40.302Z,48.03
2022-08-07T13:20:51.095Z,48.34
2022-08-07T13:25:00.472Z,48.16
2022-08-07T13:29:34.635Z,47.82
2022-08-07T13:34:34.509Z,48.36
2022-08-07T13:38:21.722Z,48.69
2022-08-07T13:42:26.794Z,49.19
2022-08-07T13:46:33.497Z,49.45
2022-08-07T13:50:45.096Z,49.69
2022-08-07T13:55:11.011Z,50.45
2022-08-07T13:59:23.778Z,50.23
2022-08-07T14:04:05.280Z,50.39
2022-08-07T14:07:54.423Z,50.19
2022-08-07T14:12:07.495Z,50.36
2022-08-07T14:16:16.113Z,50.16
2022-08-07T14:20:44.297Z,49.76
2022-08-07T14:24:51.469Z,49.33
2022-08-07T14:28:57.494Z,49.72
2022-08-07T14:37:36.042Z,49.94
2022-08-07T14:42:20.168Z,49.13
2022-08-07T14:46:02.645Z,48.67
2022-08-07T14:50:11.286Z,47.98
2022-08-07T14:54:31.039Z,48.01
2022-08-07T14:58:37.226Z,47.42
2022-08-07T15:02:46.427Z,47.26
2022-08-07T15:07:00.836Z,48.28
2022-08-07T15:11:15.382Z,47.86
2022-08-07T15:15:43.985Z,48.12
2022-08-07T15:20:31.381Z,48.18
2022-08-07T15:30:02.352Z,48.32
2022-08-07T15:33:20.149Z,47.59
2022-08-07T15:37:28.886Z,47.50
2022-08-07T15:42:46.331Z,47.39
2022-08-07T15:46:31.943Z,47.07
2022-08-07T15:51:08.128Z,47.17
2022-08-07T15:55:11.459Z,47.48
2022-08-07T15:59:20.243Z,47.87
2022-08-07T16:03:47.430Z,48.43
2022-08-07T16:08:30.668Z,48.30
2022-08-07T16:12:41.048Z,48.49
2022-08-07T16:18:00.834Z,48.63
2022-08-07T16:22:04.060Z,49.83
2022-08-07T16:26:59.612Z,50.47
2022-08-07T16:31:50.050Z,51.26
2022-08-07T16:36:01.327Z,52.69
2022-08-07T16:40:28.167Z,52.82
2022-08-07T16:45:24.620Z,53.42
2022-08-07T16:50:27.931Z,53.72
2022-08-07T16:54:33.068Z,54.30
2022-08-07T16:59:11.026Z,54.66
2022-08-07T17:03:58.379Z,54.58
2022-08-07T17:07:57.656Z,54.81
2022-08-07T17:12:33.757Z,54.89
2022-08-07T17:16:45.201Z,55.46
2022-08-07T17:20:58.064Z,55.35
2022-08-07T17:25:08.290Z,55.30
2022-08-07T17:30:14.824Z,55.05
2022-08-07T17:34:34.247Z,55.66
2022-08-07T17:38:58.895Z,56.01
2022-08-07T17:43:39.667Z,56.63
2022-08-07T17:48:17.107Z,56.72
2022-08-07T17:52:39.612Z,57.36
2022-08-07T17:57:18.458Z,57.54
2022-08-07T18:01:28.942Z,57.80
2022-08-07T18:06:01.633Z,57.95
2022-08-07T18:10:33.506Z,59.42
2022-08-07T18:14:46.380Z,59.15
2022-08-07T18:21:03.778Z,59.65
2022-08-07T18:23:43.031Z,59.96
2022-08-07T18:28:13.654Z,60.57
2022-08-07T18:33:11.023Z,61.16
2022-08-07T18:38:56.139Z,61.47
2022-08-07T18:42:12.757Z,61.58
2022-08-07T18:46:42.883Z,62.26
2022-08-07T18:50:47.714Z,62.43
2022-08-07T18:55:41.056Z,63.61
2022-08-07T18:59:59.135Z,63.76
2022-08-07T19:04:13.688Z,64.44
2022-08-07T19:08:26.785Z,64.84
2022-08-07T19:13:10.437Z,65.35
2022-08-07T19:18:00.961Z,65.65
2022-08-07T19:21:58.781Z,65.84
2022-08-07T19:26:24.722Z,66.17
2022-08-07T19:31:03.822Z,66.66
2022-08-07T19:35:01.453Z,67.26
2022-08-07T19:39:09.194Z,67.29
2022-08-07T19:43:22.080Z,67.53
2022-08-07T19:47:44.666Z,67.93
2022-08-07T19:52:00.368Z,68.46
2022-08-07T19:56:15.103Z,68.47
2022-08-07T20:00:34.702Z,68.69
2022-08-07T20:04:42.942Z,69.21
2022-08-07T20:08:51.846Z,69.26
2022-08-07T20:12:55.108Z,69.66
2022-08-07T20:16:58.541Z,69.62
2022-08-07T20:21:02.284Z,69.85
2022-08-07T20:25:19.279Z,70.50
2022-08-07T20:29:47.692Z,70.47
2022-08-07T20:33:56.838Z,70.45
2022-08-07T20:38:00.846Z,70.58
2022-08-07T20:42:08.759Z,71.09
2022-08-07T20:46:26.123Z,70.80
2022-08-07T20:50:33.371Z,70.96
2022-08-07T20:54:35.149Z,71.17
2022-08-07T20:58:41.906Z,71.53
2022-08-07T21:03:03.755Z,71.31
2022-08-07T21:07:14.654Z,71.54
2022-08-07T21:11:40.239Z,71.67
2022-08-07T21:16:00.350Z,71.51
2022-08-07T21:20:06.608Z,71.67
2022-08-07T21:24:24.930Z,71.88
2022-08-07T21:28:48.850Z,71.58
2022-08-07T21:33:13.047Z,71.61
2022-08-07T21:37:21.695Z,71.72
2022-08-07T21:41:38.331Z,71.81
2022-08-07T21:46:24.767Z,72.13
2022-08-07T21:50:51.883Z,72.33
2022-08-07T21:54:59.724Z,72.31
2022-08-07T21:59:19.479Z,72.57
2022-08-07T22:03:41.043Z,72.68
2022-08-07T22:07:58.483Z,72.65
2022-08-07T22:12:17.746Z,72.57
2022-08-07T22:16:42.654Z,72.66
2022-08-07T22:20:59.747Z,72.69
2022-08-07T22:25:13.689Z,72.83
2022-08-07T22:29:48.416Z,73.08
2022-08-07T22:33:58.624Z,73.09
2022-08-07T22:38:35.880Z,73.04
2022-08-07T22:42:40.215Z,72.88
2022-08-07T22:47:08.684Z,73.05
2022-08-07T22:51:37.955Z,73.09
2022-08-07T22:55:58.734Z,73.14
2022-08-07T23:00:07.879Z,73.16
2022-08-07T23:04:58.327Z,73.27
2022-08-07T23:10:03.487Z,73.32
2022-08-07T23:14:10.926Z,73.25
2022-08-07T23:19:11.274Z,73.21
2022-08-07T23:24:07.100Z,73.27
2022-08-07T23:28:21.377Z,73.78
2022-08-07T23:34:36.301Z,73.98
2022-08-07T23:38:03.896Z,74.00
2022-08-07T23:42:34.270Z,74.31
2022-08-07T23:47:12.125Z,74.51
2022-08-07T23:53:05.505Z,74.18
2022-08-07T23:55:56.185Z,74.49
